Time;durP1;ratioP1;P1;durP2;ratioP2;P2;SDS_P1;SDS_P2;PMS_P1;PMS_P2;Temp;Humidity;BMP_temperature;BMP_pressure;BME280_temperature;BME280_humidity;BME280_pressure;Samples;Min_cycle;Max_cycle;Signal;HPM_P1;HPM_P2
2023/03/12 00:00:07;;;;;;;;;;;;;;;20.80;41.37;100496.28;4958251;28;4037;-63
2023/03/12 00:02:34;;;;;;;;;;;;;;;20.81;41.29;100497.75;4957339;28;4278;-63
2023/03/12 00:05:00;;;;;;;;;;;;;;;20.81;41.50;100503.50;4959691;28;5375;-63
2023/03/12 00:07:26;;;;;;;;;;;;;;;20.80;41.37;100496.28;4955912;28;5057;-63
2023/03/12 00:09:53;;;;;;;;;;;;;;;20.80;41.36;100495.53;4955343;28;4147;-62
2023/03/12 00:12:19;;;;;;;;;;;;;;;20.80;41.17;100496.28;4954020;28;4194;-62
2023/03/12 00:14:45;;;;;;;;;;;;;;;20.79;41.13;100500.53;4951679;28;4147;-62
2023/03/12 00:17:12;;;;;;;;;;;;;;;20.78;41.18;100490.44;4956252;28;4195;-63
2023/03/12 00:19:38;;;;;;;;;;;;;;;20.78;40.97;100493.31;4953107;28;5269;-63
2023/03/12 00:22:04;;;;;;;;;;;;;;;20.77;40.94;100503.34;4956245;28;4216;-63
2023/03/12 00:24:31;;;;;;;;;;;;;;;20.77;40.84;100506.22;4960105;28;4078;-63
2023/03/12 00:26:57;;;;;;;;;;;;;;;20.77;40.67;100497.59;4954078;28;4223;-62
2023/03/12 00:29:23;;;;;;;;;;;;;;;20.75;40.75;100506.13;4953537;28;5231;-62
2023/03/12 00:31:50;;;;;;;;;;;;;;;20.74;40.98;100493.16;4952053;28;4177;-63
2023/03/12 00:34:17;;;;;;;;;;;;;;;20.74;40.83;100510.44;4951780;28;4361;-63
2023/03/12 00:36:43;;;;;;;;;;;;;;;20.74;40.84;100504.66;4959722;28;4130;-63
2023/03/12 00:39:10;;;;;;;;;;;;;;;20.76;40.96;100506.91;4958685;28;6275;-62
2023/03/12 00:41:36;;;;;;;;;;;;;;;20.76;41.14;100507.63;4946002;28;5629;-64
2023/03/12 00:44:02;;;;;;;;;;;;;;;20.83;41.24;100512.22;4957073;28;4080;-62
2023/03/12 00:46:29;;;;;;;;;;;;;;;20.87;40.99;100518.16;4955630;28;5139;-62
2023/03/12 00:48:55;;;;;;;;;;;;;;;20.90;41.23;100511.06;4956091;28;4148;-62
2023/03/12 00:51:22;;;;;;;;;;;;;;;20.89;41.30;100521.09;4956917;28;4202;-62
2023/03/12 00:53:48;;;;;;;;;;;;;;;20.90;41.29;100521.84;4946690;28;4262;-63
2023/03/12 00:56:14;;;;;;;;;;;;;;;20.91;41.47;100524.06;4961448;28;5421;-63
2023/03/12 00:58:42;;;;;;;;;;;;;;;20.89;41.40;100532.63;4955425;28;5539;-63
2023/03/12 01:01:08;;;;;;;;;;;;;;;20.87;41.56;100529.66;4957052;28;4219;-63
2023/03/12 01:03:35;;;;;;;;;;;;;;;20.84;41.50;100525.19;4938505;28;4224;-63
2023/03/12 01:06:01;;;;;;;;;;;;;;;20.82;41.54;100525.16;4954383;28;5362;-63
2023/03/12 01:08:27;;;;;;;;;;;;;;;20.80;41.46;100536.56;4944771;28;4159;-63
2023/03/12 01:10:54;;;;;;;;;;;;;;;20.80;41.24;100535.81;4956504;28;4106;-62
2023/03/12 01:13:20;;;;;;;;;;;;;;;20.79;41.23;100535.06;4958929;28;4109;-63
2023/03/12 01:15:46;;;;;;;;;;;;;;;20.78;41.05;100532.88;4962560;28;4215;-62
2023/03/12 01:18:14;;;;;;;;;;;;;;;20.76;41.11;100530.66;4951731;28;4036;-63
2023/03/12 01:20:41;;;;;;;;;;;;;;;20.75;41.12;100537.78;4944238;28;4137;-63
2023/03/12 01:23:07;;;;;;;;;;;;;;;20.74;41.15;100536.31;4956819;28;5211;-63
2023/03/12 01:25:34;;;;;;;;;;;;;;;20.73;41.03;100542.72;4945421;28;4296;-62
2023/03/12 01:28:00;;;;;;;;;;;;;;;20.73;41.23;100536.97;4957324;28;4046;-62
2023/03/12 01:30:27;;;;;;;;;;;;;;;20.71;41.37;100540.53;4957609;28;4006;-63
2023/03/12 01:32:53;;;;;;;;;;;;;;;20.73;41.26;100536.97;4952512;28;4160;-63
2023/03/12 01:35:20;;;;;;;;;;;;;;;20.74;41.35;100538.47;4956724;28;4359;-63
2023/03/12 01:37:46;;;;;;;;;;;;;;;20.75;41.33;100546.41;4951225;28;4157;-64
2023/03/12 01:40:16;;;;;;;;;;;;;;;20.74;41.38;100539.19;4957855;28;4279;-63
2023/03/12 01:42:42;;;;;;;;;;;;;;;20.75;41.44;100549.28;4947792;28;4206;-63
2023/03/12 01:45:27;;;;;;;;;;;;;;;20.75;41.35;100537.78;4965682;28;4237;-63
2023/03/12 01:47:54;;;;;;;;;;;;;;;20.75;41.39;100546.41;4959581;28;4170;-63
2023/03/12 01:50:20;;;;;;;;;;;;;;;20.76;41.49;100544.31;4950915;28;4215;-63
2023/03/12 01:52:47;;;;;;;;;;;;;;;20.74;41.25;100550.72;4965389;28;4206;-63
2023/03/12 01:55:13;;;;;;;;;;;;;;;20.74;41.07;100550.72;4953414;28;4137;-63
2023/03/12 01:57:43;;;;;;;;;;;;;;;20.73;41.08;100546.38;4934617;28;5210;-62
2023/03/12 02:00:20;;;;;;;;;;;;;;;20.74;40.94;100549.97;4950792;28;4220;-63
2023/03/12 02:02:48;;;;;;;;;;;;;;;20.72;40.69;100542.00;4970580;28;5299;-63
2023/03/12 02:05:19;;;;;;;;;;;;;;;20.71;40.83;100552.03;4947711;28;5312;-62
2023/03/12 02:07:45;;;;;;;;;;;;;;;20.71;40.95;100546.28;4950469;28;4176;-63
2023/03/12 02:10:11;;;;;;;;;;;;;;;20.71;40.78;100557.78;4957650;28;4056;-63
2023/03/12 02:12:38;;;;;;;;;;;;;;;20.71;40.87;100547.00;4952092;28;4225;-63
2023/03/12 02:15:04;;;;;;;;;;;;;;;20.71;41.18;100552.78;4960247;28;4232;-62
2023/03/12 02:17:31;;;;;;;;;;;;;;;20.73;41.20;100557.13;4951054;28;4133;-62
2023/03/12 02:20:00;;;;;;;;;;;;;;;20.75;41.07;100568.72;4942690;28;4121;-63
2023/03/12 02:22:27;;;;;;;;;;;;;;;20.73;41.19;100560.75;4941735;28;5254;-62
2023/03/12 02:25:12;;;;;;;;;;;;;;;20.75;41.15;100560.06;4949575;28;4162;-62
2023/03/12 02:27:38;;;;;;;;;;;;;;;20.74;41.10;100578.75;4955063;28;4209;-63
2023/03/12 02:30:06;;;;;;;;;;;;;;;20.75;40.86;100575.19;4931524;28;4205;-62
2023/03/12 02:32:34;;;;;;;;;;;;;;;20.73;41.11;100577.25;4933575;28;4216;-62
2023/03/12 02:35:00;;;;;;;;;;;;;;;20.72;40.89;100576.53;4950505;28;4156;-62
2023/03/12 02:37:27;;;;;;;;;;;;;;;20.70;40.78;100582.94;4951730;28;4759;-62
2023/03/12 02:40:09;;;;;;;;;;;;;;;20.71;40.66;100580.81;4943355;28;4338;-62
2023/03/12 02:42:35;;;;;;;;;;;;;;;20.70;40.58;100590.81;4951159;28;4291;-64
2023/03/12 02:45:02;;;;;;;;;;;;;;;20.70;40.72;100596.56;4951901;28;4159;-62
2023/03/12 02:47:28;;;;;;;;;;;;;;;20.70;40.85;100602.34;4939429;28;4263;-62
2023/03/12 02:49:55;;;;;;;;;;;;;;;20.68;40.91;100597.25;4959182;28;4159;-62
2023/03/12 02:52:21;;;;;;;;;;;;;;;20.70;41.15;100610.97;4965307;28;4309;-62
2023/03/12 02:54:47;;;;;;;;;;;;;;;20.71;41.13;100603.81;4939729;29;3972;-62
2023/03/12 02:57:16;;;;;;;;;;;;;;;20.72;41.14;100611.06;4953254;28;4206;-62
2023/03/12 02:59:43;;;;;;;;;;;;;;;20.72;41.04;100611.06;4945427;28;4134;-62
2023/03/12 03:02:11;;;;;;;;;;;;;;;20.71;41.02;100603.81;4936260;28;4117;-62
2023/03/12 03:04:38;;;;;;;;;;;;;;;20.71;40.96;100606.72;4939246;28;4140;-62
2023/03/12 03:07:04;;;;;;;;;;;;;;;20.70;41.04;100608.09;4935416;28;4179;-62
2023/03/12 03:09:30;;;;;;;;;;;;;;;20.71;40.96;100612.47;4944640;28;5398;-62
2023/03/12 03:11:57;;;;;;;;;;;;;;;20.68;40.76;100616.63;4935181;28;4334;-62
2023/03/12 03:14:25;;;;;;;;;;;;;;;20.68;40.82;100616.63;4937983;29;4010;-62
2023/03/12 03:16:51;;;;;;;;;;;;;;;20.67;40.90;100615.16;4952567;28;4194;-62
2023/03/12 03:19:20;;;;;;;;;;;;;;;20.66;40.69;100622.31;4942474;29;4050;-62
2023/03/12 03:21:47;;;;;;;;;;;;;;;20.66;40.66;100625.19;4940082;28;4180;-63
2023/03/12 03:24:13;;;;;;;;;;;;;;;20.65;40.79;100629.47;4945659;28;4078;-62
2023/03/12 03:26:40;;;;;;;;;;;;;;;20.64;40.70;100630.88;4945891;29;4214;-62
2023/03/12 03:29:06;;;;;;;;;;;;;;;20.63;40.74;100632.97;4934233;29;5546;-62
2023/03/12 03:31:32;;;;;;;;;;;;;;;20.63;40.79;100632.25;4961750;28;4205;-62
2023/03/12 03:33:59;;;;;;;;;;;;;;;20.63;40.52;100635.84;4933997;28;5406;-62
2023/03/12 03:36:25;;;;;;;;;;;;;;;20.64;40.33;100642.38;4945530;28;4271;-62
2023/03/12 03:38:59;;;;;;;;;;;;;;;20.65;40.65;100641.69;4947692;28;4154;-62
2023/03/12 03:41:27;;;;;;;;;;;;;;;20.66;40.88;100648.19;4954854;28;4273;-62
2023/03/12 03:43:56;;;;;;;;;;;;;;;20.65;40.90;100641.69;4943360;29;4251;-62
2023/03/12 03:46:22;;;;;;;;;;;;;;;20.68;40.86;100640.41;4940743;28;4236;-62
2023/03/12 03:48:54;;;;;;;;;;;;;;;20.70;41.05;100654.13;4954007;28;5408;-63
2023/03/12 03:51:21;;;;;;;;;;;;;;;20.71;40.92;100649.88;4944095;28;4189;-62
2023/03/12 03:53:52;;;;;;;;;;;;;;;20.71;41.18;100649.88;4944303;28;4205;-63
2023/03/12 03:56:18;;;;;;;;;;;;;;;20.73;41.15;100657.81;4940696;28;4163;-62
2023/03/12 03:58:47;;;;;;;;;;;;;;;20.74;41.06;100660.06;4948118;28;6293;-63
2023/03/12 04:01:16;;;;;;;;;;;;;;;20.75;41.22;100661.53;4947567;28;4127;-62
2023/03/12 04:03:44;;;;;;;;;;;;;;;20.76;41.09;100668.03;4953254;28;4164;-63
2023/03/12 04:06:10;;;;;;;;;;;;;;;20.75;41.43;100667.28;4946011;28;4216;-63
2023/03/12 04:08:37;;;;;;;;;;;;;;;20.74;41.31;100665.81;4955018;28;4165;-63
2023/03/12 04:11:08;;;;;;;;;;;;;;;20.73;41.43;100669.31;4946656;28;5373;-63
2023/03/12 04:13:35;;;;;;;;;;;;;;;20.74;41.26;100673.69;4947360;28;4106;-63
2023/03/12 04:16:02;;;;;;;;;;;;;;;20.72;41.19;100674.34;4941517;28;4282;-62
2023/03/12 04:18:28;;;;;;;;;;;;;;;20.72;41.53;100677.22;4945146;28;4212;-63
2023/03/12 04:20:54;;;;;;;;;;;;;;;20.71;41.43;100684.38;4939021;28;4293;-62
2023/03/12 04:23:21;;;;;;;;;;;;;;;20.70;41.19;100677.13;4953207;28;4082;-63
2023/03/12 04:25:47;;;;;;;;;;;;;;;20.73;41.06;100687.34;4956019;28;4142;-60
2023/03/12 04:28:14;;;;;;;;;;;;;;;20.47;41.52;100684.78;4953141;28;4249;-62
2023/03/12 04:30:41;;;;;;;;;;;;;;;20.53;41.32;100687.19;4932254;28;4509;-62
2023/03/12 04:33:08;;;;;;;;;;;;;;;20.58;41.07;100683.13;4953725;28;5463;-62
2023/03/12 04:35:34;;;;;;;;;;;;;;;20.61;41.14;100686.81;4948275;28;4135;-62
2023/03/12 04:38:02;;;;;;;;;;;;;;;20.62;40.88;100694.06;4943010;28;4221;-62
2023/03/12 04:40:30;;;;;;;;;;;;;;;20.62;40.73;100688.31;4937992;28;4144;-62
2023/03/12 04:42:57;;;;;;;;;;;;;;;20.63;40.70;100679.00;4960595;28;4154;-62
2023/03/12 04:45:23;;;;;;;;;;;;;;;20.64;40.74;100686.28;4935223;28;5309;-62
2023/03/12 04:47:49;;;;;;;;;;;;;;;20.66;41.02;100685.59;4938549;28;5411;-62
2023/03/12 04:50:16;;;;;;;;;;;;;;;20.68;40.90;100685.69;4945618;28;4943;-62
2023/03/12 04:52:43;;;;;;;;;;;;;;;20.68;41.09;100683.56;4963958;28;4327;-62
2023/03/12 04:55:09;;;;;;;;;;;;;;;20.71;41.11;100693.75;4963707;28;4181;-62
2023/03/12 04:57:36;;;;;;;;;;;;;;;20.73;41.13;100687.34;4955981;28;4207;-63
2023/03/12 05:00:08;;;;;;;;;;;;;;;20.75;41.15;100687.41;4937682;28;4254;-62
2023/03/12 05:02:35;;;;;;;;;;;;;;;20.76;41.21;100683.16;4935736;28;4187;-62
2023/03/12 05:05:02;;;;;;;;;;;;;;;20.77;41.22;100681.75;4945097;28;5430;-62
2023/03/12 05:07:28;;;;;;;;;;;;;;;20.79;41.40;100684.72;4953797;28;3990;-62
2023/03/12 05:09:55;;;;;;;;;;;;;;;20.79;41.31;100684.72;4953121;28;4134;-62
2023/03/12 05:12:21;;;;;;;;;;;;;;;20.78;41.41;100689.00;4944639;28;4233;-62
2023/03/12 05:14:48;;;;;;;;;;;;;;;20.78;41.42;100677.50;4934108;28;4013;-62
2023/03/12 05:17:14;;;;;;;;;;;;;;;20.77;41.43;100690.38;4935705;28;3935;-62
2023/03/12 05:19:41;;;;;;;;;;;;;;;20.78;41.40;100696.91;4946388;28;4167;-63
2023/03/12 05:22:07;;;;;;;;;;;;;;;20.76;41.49;100694.66;4952842;28;5152;-62
2023/03/12 05:24:34;;;;;;;;;;;;;;;20.76;41.71;100696.81;4934864;28;4422;-62
2023/03/12 05:27:01;;;;;;;;;;;;;;;20.74;41.63;100694.59;4933202;28;5252;-62
2023/03/12 05:29:34;;;;;;;;;;;;;;;20.74;41.50;100697.47;4942625;28;4195;-62
2023/03/12 05:32:01;;;;;;;;;;;;;;;20.74;41.59;100699.59;4943994;28;5247;-62
2023/03/12 05:34:29;;;;;;;;;;;;;;;20.72;41.66;100697.38;4958221;28;5431;-62
2023/03/12 05:36:55;;;;;;;;;;;;;;;20.71;41.60;100687.28;4962628;28;4123;-62
2023/03/12 05:39:24;;;;;;;;;;;;;;;20.70;41.51;100695.13;4960967;28;6675;-62
2023/03/12 05:41:52;;;;;;;;;;;;;;;20.70;41.47;100688.66;4947446;28;4208;-62
2023/03/12 05:44:20;;;;;;;;;;;;;;;20.69;41.69;100687.19;4937734;28;4205;-62
2023/03/12 05:46:51;;;;;;;;;;;;;;;20.67;41.52;100684.94;4934824;28;4536;-62
2023/03/12 05:49:17;;;;;;;;;;;;;;;20.68;41.60;100697.19;4955502;28;4252;-62
2023/03/12 05:51:45;;;;;;;;;;;;;;;20.68;41.54;100691.44;4958075;28;4164;-62
2023/03/12 05:54:11;;;;;;;;;;;;;;;20.70;41.48;100691.53;4950672;28;4140;-62
2023/03/12 05:56:37;;;;;;;;;;;;;;;20.71;41.62;100699.50;4958033;28;6363;-63
2023/03/12 05:59:05;;;;;;;;;;;;;;;20.73;41.73;100703.84;4948748;28;5235;-62
2023/03/12 06:01:31;;;;;;;;;;;;;;;20.74;41.60;100697.47;4945598;28;4201;-62
2023/03/12 06:04:00;;;;;;;;;;;;;;;20.75;41.52;100690.28;4947266;28;5429;-62
2023/03/12 06:06:28;;;;;;;;;;;;;;;20.76;41.70;100696.81;4938932;28;5226;-62
2023/03/12 06:08:54;;;;;;;;;;;;;;;20.78;41.56;100703.38;4962759;28;4164;-62
2023/03/12 06:11:21;;;;;;;;;;;;;;;20.78;41.78;100706.28;4944369;28;4269;-62
2023/03/12 06:13:47;;;;;;;;;;;;;;;20.80;41.81;100705.59;4958073;28;6470;-62
2023/03/12 06:16:15;;;;;;;;;;;;;;;20.80;41.71;100700.59;4943839;28;4242;-62
2023/03/12 06:18:41;;;;;;;;;;;;;;;20.81;41.69;100699.19;4922284;28;4207;-62
2023/03/12 06:21:09;;;;;;;;;;;;;;;20.79;42.01;100699.09;4943736;28;4393;-62
2023/03/12 06:23:35;;;;;;;;;;;;;;;20.79;42.03;100701.97;4938411;28;4042;-62
2023/03/12 06:26:01;;;;;;;;;;;;;;;20.78;42.02;100702.66;4956215;28;5231;-62
2023/03/12 06:28:28;;;;;;;;;;;;;;;20.79;42.08;100710.63;4960275;28;4146;-62
2023/03/12 06:30:54;;;;;;;;;;;;;;;20.77;41.95;100704.78;4955372;28;4490;-62
2023/03/12 06:33:20;;;;;;;;;;;;;;;20.76;42.02;100706.19;4958829;28;4283;-62
2023/03/12 06:35:47;;;;;;;;;;;;;;;20.76;42.00;100703.31;4956982;28;4115;-62
2023/03/12 06:38:13;;;;;;;;;;;;;;;20.76;41.98;100709.06;4955499;28;5489;-62
2023/03/12 06:40:40;;;;;;;;;;;;;;;20.75;41.98;100712.59;4955887;28;4268;-62
2023/03/12 06:43:10;;;;;;;;;;;;;;;20.74;41.97;100708.97;4958805;28;4200;-62
2023/03/12 06:45:37;;;;;;;;;;;;;;;20.73;42.01;100716.13;4955126;28;3977;-62
2023/03/12 06:48:03;;;;;;;;;;;;;;;20.73;41.96;100715.38;4960090;28;4514;-62
2023/03/12 06:50:30;;;;;;;;;;;;;;;20.71;42.12;100710.28;4956711;28;4023;-62
2023/03/12 06:52:56;;;;;;;;;;;;;;;20.71;42.09;100721.78;4959240;28;4113;-62
2023/03/12 06:55:22;;;;;;;;;;;;;;;20.70;41.90;100709.53;4960206;28;4133;-62
2023/03/12 06:57:49;;;;;;;;;;;;;;;20.70;42.11;100723.19;4958089;28;5429;-62
2023/03/12 07:00:15;;;;;;;;;;;;;;;20.69;42.25;100727.47;4961505;28;4097;-62
2023/03/12 07:02:41;;;;;;;;;;;;;;;20.71;41.93;100722.53;4960046;28;5258;-63
2023/03/12 07:05:08;;;;;;;;;;;;;;;20.72;42.12;100726.16;4960140;28;4200;-62
2023/03/12 07:07:34;;;;;;;;;;;;;;;20.74;41.99;100726.22;4961077;28;5195;-62
2023/03/12 07:10:01;;;;;;;;;;;;;;;20.76;41.99;100728.47;4958357;28;5173;-62
2023/03/12 07:12:27;;;;;;;;;;;;;;;20.78;41.92;100722.81;4959261;28;4264;-62
2023/03/12 07:14:53;;;;;;;;;;;;;;;20.77;42.08;100722.03;4956845;28;5460;-62
2023/03/12 07:17:21;;;;;;;;;;;;;;;20.79;42.29;100719.25;4958806;28;5518;-62
2023/03/12 07:19:47;;;;;;;;;;;;;;;20.81;42.24;100722.22;4959633;28;5263;-62
2023/03/12 07:22:15;;;;;;;;;;;;;;;20.82;42.26;100729.47;4960301;28;4403;-62
2023/03/12 07:24:41;;;;;;;;;;;;;;;20.83;42.08;100730.19;4961404;28;4185;-62
2023/03/12 07:27:08;;;;;;;;;;;;;;;20.83;42.25;100730.19;4957177;28;4390;-62
2023/03/12 07:29:34;;;;;;;;;;;;;;;20.82;42.18;100738.09;4958454;28;5752;-62
2023/03/12 07:32:00;;;;;;;;;;;;;;;20.83;42.36;100736.69;4955886;28;4124;-62
2023/03/12 07:34:27;;;;;;;;;;;;;;;20.82;42.36;100735.22;4959731;28;4235;-62
2023/03/12 07:36:55;;;;;;;;;;;;;;;20.81;42.45;100730.84;4956347;28;5185;-62
2023/03/12 07:39:21;;;;;;;;;;;;;;;20.82;42.24;100740.97;4957574;28;4173;-62
2023/03/12 07:41:48;;;;;;;;;;;;;;;20.83;42.37;100739.56;4958326;28;4174;-62
2023/03/12 07:44:14;;;;;;;;;;;;;;;20.79;42.28;100742.28;4958013;28;4199;-62
2023/03/12 07:46:40;;;;;;;;;;;;;;;20.79;42.39;100742.28;4954101;28;5309;-62
2023/03/12 07:49:07;;;;;;;;;;;;;;;20.78;42.50;100735.03;4954708;28;4234;-62
2023/03/12 07:51:33;;;;;;;;;;;;;;;20.78;42.47;100734.31;4955383;28;4282;-62
2023/03/12 07:54:00;;;;;;;;;;;;;;;20.77;42.32;100739.31;4954256;28;5212;-62
2023/03/12 07:56:26;;;;;;;;;;;;;;;20.77;42.42;100739.31;4960863;28;5186;-62
2023/03/12 07:58:52;;;;;;;;;;;;;;;20.83;42.62;100736.69;4958270;28;5254;-62
2023/03/12 08:01:19;;;;;;;;;;;;;;;20.80;42.65;100734.38;4959475;28;4193;-63
2023/03/12 08:03:45;;;;;;;;;;;;;;;20.75;42.44;100741.34;4959927;28;4268;-64
2023/03/12 08:06:12;;;;;;;;;;;;;;;20.71;41.90;100741.94;4957307;28;4233;-63
2023/03/12 08:08:41;;;;;;;;;;;;;;;20.71;41.31;100750.56;4957047;28;5122;-63
2023/03/12 08:11:07;;;;;;;;;;;;;;;20.67;40.74;100753.28;4955973;28;4317;-62
2023/03/12 08:13:34;;;;;;;;;;;;;;;20.66;40.47;100746.78;4960254;28;4233;-62
2023/03/12 08:16:00;;;;;;;;;;;;;;;20.70;40.23;100758.44;4954550;28;4167;-61
2023/03/12 08:18:26;;;;;;;;;;;;;;;20.71;40.66;100753.44;4954587;28;4201;-63
2023/03/12 08:20:53;;;;;;;;;;;;;;;20.79;40.94;100759.53;4956438;28;4148;-63
2023/03/12 08:23:19;;;;;;;;;;;;;;;20.84;41.01;100748.94;4957911;28;4179;-64
2023/03/12 08:25:46;;;;;;;;;;;;;;;20.89;41.04;100754.22;4950564;28;4257;-64
2023/03/12 08:28:12;;;;;;;;;;;;;;;20.93;40.97;100751.50;4957588;28;4182;-62
2023/03/12 08:30:39;;;;;;;;;;;;;;;20.96;40.72;100751.59;4955389;28;5412;-64
2023/03/12 08:33:05;;;;;;;;;;;;;;;20.97;40.97;100756.69;4960547;28;5279;-64
2023/03/12 08:35:32;;;;;;;;;;;;;;;20.99;40.79;100753.19;4958492;28;4192;-63
2023/03/12 08:37:59;;;;;;;;;;;;;;;20.97;40.99;100750.22;4951315;28;5506;-67
2023/03/12 08:40:26;;;;;;;;;;;;;;;21.01;41.01;100753.25;4956771;28;5296;-60
2023/03/12 08:42:52;;;;;;;;;;;;;;;20.97;41.18;100738.69;4957644;28;5147;-64
2023/03/12 08:45:18;;;;;;;;;;;;;;;20.97;41.26;100741.56;4952043;28;4253;-64
2023/03/12 08:47:45;;;;;;;;;;;;;;;20.97;41.20;100727.91;4957773;28;5368;-64
2023/03/12 08:50:11;;;;;;;;;;;;;;;20.98;41.22;100740.94;4957314;28;4199;-64
2023/03/12 08:52:38;;;;;;;;;;;;;;;20.99;41.48;100735.91;4954228;28;5250;-64
2023/03/12 08:55:04;;;;;;;;;;;;;;;20.98;41.43;100740.94;4955903;28;4066;-64
2023/03/12 08:57:31;;;;;;;;;;;;;;;20.98;41.60;100728.66;4961318;28;4166;-64
2023/03/12 08:59:57;;;;;;;;;;;;;;;20.98;41.64;100732.28;4956227;28;4182;-64
2023/03/12 09:02:24;;;;;;;;;;;;;;;20.97;41.60;100733.66;4956718;28;4187;-64
2023/03/12 09:04:50;;;;;;;;;;;;;;;20.97;41.68;100724.31;4958542;28;4193;-64
2023/03/12 09:07:21;;;;;;;;;;;;;;;20.96;41.84;100725.69;4955305;28;5312;-64
2023/03/12 09:09:47;;;;;;;;;;;;;;;20.97;41.90;100727.19;4957317;28;5336;-64
2023/03/12 09:12:13;;;;;;;;;;;;;;;20.96;41.65;100725.69;4955825;28;4166;-64
2023/03/12 09:14:40;;;;;;;;;;;;;;;20.96;41.69;100726.44;4952352;28;4059;-64
2023/03/12 09:17:27;;;;;;;;;;;;;;;20.98;41.94;100714.25;4959110;28;4041;-64
2023/03/12 09:19:53;;;;;;;;;;;;;;;20.98;42.04;100723.66;4956659;28;4187;-63
2023/03/12 09:22:20;;;;;;;;;;;;;;;21.01;41.76;100718.72;4956079;28;4205;-63
2023/03/12 09:24:46;;;;;;;;;;;;;;;21.00;42.01;100717.97;4957237;28;5222;-63
2023/03/12 09:27:12;;;;;;;;;;;;;;;21.02;41.95;100723.06;4955547;28;5275;-63
2023/03/12 09:29:40;;;;;;;;;;;;;;;21.05;42.08;100721.75;4955377;28;4146;-63
2023/03/12 09:32:26;;;;;;;;;;;;;;;21.07;42.17;100716.84;4958025;28;4179;-64
2023/03/12 09:34:53;;;;;;;;;;;;;;;21.05;42.21;100722.50;4955973;28;4201;-64
2023/03/12 09:37:19;;;;;;;;;;;;;;;21.04;42.16;100723.16;4954118;28;4278;-63
2023/03/12 09:39:49;;;;;;;;;;;;;;;21.08;42.23;100717.56;4957997;28;4158;-63
2023/03/12 09:42:38;;;;;;;;;;;;;;;21.12;42.24;100715.59;4958253;28;4196;-63
2023/03/12 09:45:05;;;;;;;;;;;;;;;21.08;42.25;100715.44;4951745;28;4040;-62
2023/03/12 09:47:32;;;;;;;;;;;;;;;21.09;42.90;100710.41;4946479;28;4208;-61
2023/03/12 09:50:06;;;;;;;;;;;;;;;21.04;42.74;100720.28;4955412;28;4123;-63
2023/03/12 09:52:34;;;;;;;;;;;;;;;21.06;42.08;100717.47;4946330;28;4213;-62
2023/03/12 09:55:06;;;;;;;;;;;;;;;20.97;43.84;100715.66;4944813;28;4153;-66
2023/03/12 09:57:32;;;;;;;;;;;;;;;21.03;44.69;100718.81;4945665;28;4024;-63
2023/03/12 09:59:58;;;;;;;;;;;;;;;21.02;42.95;100705.78;4955399;28;6337;-62
2023/03/12 10:02:43;;;;;;;;;;;;;;;21.04;42.06;100714.53;4954265;28;4600;-62
2023/03/12 10:05:11;;;;;;;;;;;;;;;21.05;42.08;100710.22;4944505;28;4207;-62
2023/03/12 10:07:40;;;;;;;;;;;;;;;21.06;42.32;100703.81;4950552;28;4168;-61
2023/03/12 10:10:07;;;;;;;;;;;;;;;21.10;42.46;100709.03;4953977;28;3948;-63
2023/03/12 10:12:37;;;;;;;;;;;;;;;21.11;42.79;100701.84;4960065;28;4252;-64
2023/03/12 10:15:11;;;;;;;;;;;;;;;21.14;43.60;100700.53;4939599;28;4167;-63
2023/03/12 10:17:46;;;;;;;;;;;;;;;21.13;45.05;100696.91;4962428;28;4992;-63
2023/03/12 10:20:21;;;;;;;;;;;;;;;20.90;44.40;100692.38;4943799;28;4041;-63
2023/03/12 10:22:53;;;;;;;;;;;;;;;20.91;44.63;100693.88;4942053;28;4147;-65
2023/03/12 10:25:21;;;;;;;;;;;;;;;20.98;44.17;100679.72;4956966;28;4006;-66
2023/03/12 10:27:48;;;;;;;;;;;;;;;21.02;43.51;100682.75;4954185;28;5315;-67
2023/03/12 10:30:16;;;;;;;;;;;;;;;21.05;43.54;100681.44;4942430;28;4180;-68
2023/03/12 10:32:44;;;;;;;;;;;;;;;21.10;43.67;100680.22;4955405;28;4867;-68
2023/03/12 10:35:14;;;;;;;;;;;;;;;21.12;43.22;100680.31;4945126;28;5310;-68
2023/03/12 10:37:53;;;;;;;;;;;;;;;21.15;43.30;100673.22;4957579;28;4219;-68
2023/03/12 10:40:20;;;;;;;;;;;;;;;21.23;43.78;100679.28;4957966;28;4066;-68
2023/03/12 10:42:47;;;;;;;;;;;;;;;21.20;43.92;100668.38;4953798;28;4241;-67
2023/03/12 10:45:19;;;;;;;;;;;;;;;21.17;44.12;100676.19;4958436;28;4115;-67
2023/03/12 10:47:49;;;;;;;;;;;;;;;21.15;44.12;100669.63;4955240;28;4225;-68
2023/03/12 10:50:16;;;;;;;;;;;;;;;21.15;43.91;100661.72;4939769;28;5512;-68
2023/03/12 10:52:43;;;;;;;;;;;;;;;21.16;43.85;100665.31;4956017;28;4192;-67
2023/03/12 10:55:10;;;;;;;;;;;;;;;21.17;43.79;100658.91;4958485;28;4542;-67
2023/03/12 10:57:39;;;;;;;;;;;;;;;21.19;43.84;100650.34;4960807;28;5228;-69
2023/03/12 11:00:08;;;;;;;;;;;;;;;21.20;43.96;100657.59;4959562;28;4203;-68
2023/03/12 11:02:37;;;;;;;;;;;;;;;21.19;43.93;100649.59;4957244;28;4097;-68
2023/03/12 11:05:17;;;;;;;;;;;;;;;21.20;43.83;100648.22;4939314;28;6684;-68
2023/03/12 11:07:43;;;;;;;;;;;;;;;21.21;43.89;100623.75;4958518;28;5247;-68
2023/03/12 11:10:09;;;;;;;;;;;;;;;21.23;43.64;100627.47;4957463;28;5388;-67
2023/03/12 11:12:39;;;;;;;;;;;;;;;21.24;43.64;100628.94;4961941;28;4122;-68
2023/03/12 11:15:17;;;;;;;;;;;;;;;21.23;43.65;100626.72;4960811;28;4075;-68
2023/03/12 11:17:43;;;;;;;;;;;;;;;21.22;43.74;100628.88;4958541;28;4109;-68
2023/03/12 11:20:25;;;;;;;;;;;;;;;21.21;43.66;100624.53;4960330;28;4265;-66
2023/03/12 11:22:52;;;;;;;;;;;;;;;21.22;43.61;100626.00;4959913;28;4139;-67
2023/03/12 11:25:19;;;;;;;;;;;;;;;21.27;43.43;100613.22;4954222;28;5444;-69
2023/03/12 11:27:48;;;;;;;;;;;;;;;21.26;43.60;100614.63;4958075;28;4193;-66
2023/03/12 11:30:15;;;;;;;;;;;;;;;21.26;43.46;100613.91;4959305;28;4207;-67
2023/03/12 11:32:45;;;;;;;;;;;;;;;21.23;43.56;100601.53;4949518;28;4231;-68
2023/03/12 11:35:13;;;;;;;;;;;;;;;21.25;43.64;100600.88;4956707;28;5138;-67
2023/03/12 11:37:41;;;;;;;;;;;;;;;21.32;43.53;100609.09;4954690;28;4914;-65
2023/03/12 11:40:26;;;;;;;;;;;;;;;21.29;43.48;100596.03;4937132;28;4486;-65
2023/03/12 11:43:12;;;;;;;;;;;;;;;21.19;42.96;100597.78;4950119;28;4195;-66
2023/03/12 11:46:01;;;;;;;;;;;;;;;20.65;39.26;100597.81;4950756;28;4388;-65
2023/03/12 11:48:30;;;;;;;;;;;;;;;20.42;38.84;100588.22;4955041;28;4144;-65
2023/03/12 11:51:02;;;;;;;;;;;;;;;20.79;41.66;100601.25;4945191;28;4170;-65
2023/03/12 11:53:48;;;;;;;;;;;;;;;20.97;41.45;100584.00;4948971;28;4149;-65
2023/03/12 11:56:23;;;;;;;;;;;;;;;21.05;41.59;100589.31;4948531;28;5345;-65
2023/03/12 11:58:52;;;;;;;;;;;;;;;21.08;41.79;100582.25;4960775;28;4164;-65
2023/03/12 12:01:22;;;;;;;;;;;;;;;21.07;41.46;100575.00;4955871;28;4130;-65
2023/03/12 12:03:54;;;;;;;;;;;;;;;21.10;41.65;100571.56;4944631;28;4124;-65
2023/03/12 12:06:22;;;;;;;;;;;;;;;21.12;41.69;100574.53;4954222;28;4214;-65
2023/03/12 12:08:51;;;;;;;;;;;;;;;21.13;41.67;100572.38;4937421;28;4271;-65
2023/03/12 12:11:24;;;;;;;;;;;;;;;21.12;41.75;100559.38;4940117;28;4109;-64
2023/03/12 12:13:53;;;;;;;;;;;;;;;21.16;41.75;100541.50;4944415;28;4386;-65
2023/03/12 12:16:30;;;;;;;;;;;;;;;21.16;41.64;100536.47;4952731;28;4471;-65
2023/03/12 12:19:17;;;;;;;;;;;;;;;21.17;41.70;100537.25;4938972;28;4165;-64
2023/03/12 12:21:56;;;;;;;;;;;;;;;21.17;41.85;100548.75;4954236;28;5341;-63
2023/03/12 12:24:28;;;;;;;;;;;;;;;21.17;41.70;100532.22;4947378;28;3962;-65
2023/03/12 12:27:01;;;;;;;;;;;;;;;21.17;41.82;100520.72;4939409;28;4197;-65
2023/03/12 12:29:30;;;;;;;;;;;;;;;21.16;41.81;100510.56;4945413;28;4143;-64
2023/03/12 12:31:59;;;;;;;;;;;;;;;21.15;42.09;100506.22;4940385;28;4047;-65
2023/03/12 12:34:25;;;;;;;;;;;;;;;21.17;42.07;100496.94;4958920;28;4079;-64
2023/03/12 12:36:54;;;;;;;;;;;;;;;21.19;42.07;100494.88;4959342;28;4287;-64
2023/03/12 12:39:25;;;;;;;;;;;;;;;21.21;42.28;100492.06;4945467;28;4248;-65
2023/03/12 12:41:52;;;;;;;;;;;;;;;21.21;42.35;100486.31;4954352;28;4164;-65
2023/03/12 12:44:25;;;;;;;;;;;;;;;21.26;42.32;100473.53;4940622;28;4271;-64
2023/03/12 12:46:53;;;;;;;;;;;;;;;21.26;42.45;100482.16;4942713;28;4243;-65
2023/03/12 12:49:21;;;;;;;;;;;;;;;21.26;42.71;100479.28;4941734;28;5459;-64
2023/03/12 12:51:52;;;;;;;;;;;;;;;21.25;42.79;100460.53;4943314;28;4099;-65